Time;durP1;ratioP1;P1;durP2;ratioP2;P2;SDS_P1;SDS_P2;PMS_P1;PMS_P2;Temp;Humidity;BMP_temperature;BMP_pressure;BME280_temperature;BME280_humidity;BME280_pressure;Samples;Min_cycle;Max_cycle;Signal;HPM_P1;HPM_P2
2023/01/06 00:01:13;;;;;;;8.35;3.45;;;;;;;10.89;100.00;101707.13;5094249;28;20039;-47
2023/01/06 00:03:41;;;;;;;7.90;2.95;;;;;;;10.92;100.00;101703.94;5094248;28;20394;-49
2023/01/06 00:06:10;;;;;;;6.10;2.92;;;;;;;10.90;100.00;101703.34;5094847;28;20412;-44
2023/01/06 00:08:39;;;;;;;8.93;3.25;;;;;;;10.89;100.00;101693.50;5096300;28;20067;-46
2023/01/06 00:11:12;;;;;;;7.68;3.00;;;;;;;10.88;100.00;101692.66;5094763;28;20101;-46
2023/01/06 00:13:40;;;;;;;8.43;3.50;;;;;;;10.87;100.00;101691.03;5096836;28;20044;-47
2023/01/06 00:16:13;;;;;;;12.40;3.97;;;;;;;10.88;100.00;101681.75;5096793;28;20126;-47
2023/01/06 00:18:41;;;;;;;7.78;3.45;;;;;;;10.88;100.00;101680.94;5096695;28;20047;-45
2023/01/06 00:21:09;;;;;;;8.68;3.20;;;;;;;10.87;100.00;101674.69;5095873;28;20093;-44
2023/01/06 00:23:37;;;;;;;7.35;3.42;;;;;;;10.88;100.00;101670.88;5095081;28;20051;-45
2023/01/06 00:26:06;;;;;;;7.95;3.20;;;;;;;10.89;100.00;101671.69;5094185;28;20097;-45
2023/01/06 00:28:34;;;;;;;6.63;3.10;;;;;;;10.88;100.00;101672.78;5080241;28;20028;-45
2023/01/06 00:31:11;;;;;;;10.80;3.22;;;;;;;10.88;100.00;101676.31;5063875;28;20045;-46
2023/01/06 00:33:40;;;;;;;7.95;3.45;;;;;;;10.89;100.00;101671.69;5085620;28;20036;-45
2023/01/06 00:36:09;;;;;;;5.25;3.08;;;;;;;10.87;100.00;101684.72;5081732;28;20048;-45
2023/01/06 00:38:38;;;;;;;8.68;3.25;;;;;;;10.88;100.00;101678.22;5093451;28;20501;-46
2023/01/06 00:42:02;;;;;;;8.13;3.10;;;;;;;10.91;100.00;101680.44;5094310;28;20044;-46
2023/01/06 00:43:56;;;;;;;8.57;3.70;;;;;;;10.93;100.00;101675.56;5074698;28;20032;-46
2023/01/06 00:46:27;;;;;;;9.45;3.97;;;;;;;10.91;100.00;101675.00;5087282;28;20102;-46
2023/01/06 00:48:57;;;;;;;8.95;3.83;;;;;;;10.92;100.00;101679.38;5092387;28;20122;-44
2023/01/06 00:51:35;;;;;;;9.20;3.80;;;;;;;10.90;100.00;101665.16;5094819;28;20048;-45
2023/01/06 00:54:05;;;;;;;9.73;3.70;;;;;;;10.89;100.00;101677.13;5094476;28;20044;-45
2023/01/06 00:56:36;;;;;;;8.48;3.88;;;;;;;10.95;100.00;101670.69;5093625;28;20082;-46
2023/01/06 00:59:04;;;;;;;6.68;2.83;;;;;;;10.94;100.00;101670.94;5090515;28;20052;-46
2023/01/06 01:01:33;;;;;;;7.15;3.40;;;;;;;10.92;100.00;101671.19;5065603;28;20071;-47
2023/01/06 01:04:02;;;;;;;7.95;3.00;;;;;;;10.96;100.00;101666.88;5091332;28;20494;-45
2023/01/06 01:06:29;;;;;;;6.30;3.08;;;;;;;10.90;100.00;101673.34;5088584;28;20086;-45
2023/01/06 01:08:58;;;;;;;8.00;3.05;;;;;;;10.88;100.00;101659.97;5090340;28;20052;-44
2023/01/06 01:14:15;;;;;;;6.25;2.45;;;;;;;10.86;100.00;101666.72;5091442;28;20134;-46
2023/01/06 01:16:43;;;;;;;4.97;2.38;;;;;;;10.87;100.00;101663.78;5092373;28;20040;-46
2023/01/06 01:19:11;;;;;;;6.97;2.63;;;;;;;10.87;100.00;101668.38;5094638;28;20048;-45
2023/01/06 01:21:39;;;;;;;6.22;2.60;;;;;;;10.85;100.00;101665.91;5065856;28;20044;-45
2023/01/06 01:24:07;;;;;;;7.80;2.95;;;;;;;10.86;100.00;101662.09;5072202;28;20036;-45
2023/01/06 01:26:34;;;;;;;8.63;3.00;;;;;;;10.88;100.00;101653.69;5089472;28;20047;-45
2023/01/06 01:29:02;;;;;;;5.80;2.83;;;;;;;10.89;100.00;101658.06;5089044;28;20055;-45
2023/01/06 01:31:30;;;;;;;6.55;3.05;;;;;;;10.88;100.00;101656.41;5090897;28;20044;-44
2023/01/06 01:33:58;;;;;;;7.55;2.72;;;;;;;10.88;100.00;101650.97;5094661;28;20063;-43
2023/01/06 01:36:25;;;;;;;8.98;3.25;;;;;;;10.88;100.00;101657.22;5093513;28;20398;-44
2023/01/06 01:38:55;;;;;;;7.80;3.20;;;;;;;10.88;100.00;101649.06;5092791;28;20048;-43
2023/01/06 01:41:24;;;;;;;9.45;2.90;;;;;;;10.91;100.00;101636.81;5093034;28;20048;-46
2023/01/06 01:43:58;;;;;;;6.25;2.70;;;;;;;10.93;100.00;101639.31;5079055;28;20070;-44
2023/01/06 01:46:40;;;;;;;5.68;2.80;;;;;;;10.92;100.00;101635.75;5092984;28;20059;-45
2023/01/06 01:49:25;;;;;;;6.35;2.65;;;;;;;10.91;100.00;101636.81;5093481;28;20078;-47
2023/01/06 01:51:55;;;;;;;5.88;2.40;;;;;;;10.92;100.00;101630.31;5095001;28;20097;-46
2023/01/06 01:54:26;;;;;;;4.95;2.50;;;;;;;10.95;100.00;101635.25;5059075;28;20116;-48
2023/01/06 01:57:05;;;;;;;7.60;2.65;;;;;;;10.95;100.00;101631.69;5071999;28;20538;-46
2023/01/06 01:59:34;;;;;;;4.68;2.45;;;;;;;10.95;100.00;101631.69;5065255;28;20037;-46
2023/01/06 02:02:02;;;;;;;6.60;2.70;;;;;;;10.90;100.00;101629.72;5071407;28;20040;-47
2023/01/06 02:04:32;;;;;;;5.03;2.35;;;;;;;10.88;100.00;101627.25;5092999;28;20062;-47
2023/01/06 02:07:01;;;;;;;6.90;2.40;;;;;;;10.88;100.00;101626.41;5074890;28;20044;-47
2023/01/06 02:09:52;;;;;;;5.65;2.40;;;;;;;10.88;100.00;101620.97;5074133;28;20040;-47
2023/01/06 02:12:20;;;;;;;6.28;1.88;;;;;;;10.87;100.00;101614.69;5093191;28;20044;-44
2023/01/06 02:14:48;;;;;;;5.25;2.20;;;;;;;10.88;100.00;101615.50;5092428;28;20089;-45
2023/01/06 02:17:30;;;;;;;4.63;2.40;;;;;;;10.86;100.00;101623.94;5092321;28;20383;-45
2023/01/06 02:20:18;;;;;;;7.00;2.47;;;;;;;10.86;100.00;101618.47;5092489;28;20077;-44
2023/01/06 02:22:54;;;;;;;5.25;1.95;;;;;;;10.86;100.00;101609.47;5093228;28;20040;-45
2023/01/06 02:25:41;;;;;;;4.55;1.83;;;;;;;10.86;100.00;101615.75;5081931;28;20115;-46
2023/01/06 02:28:48;;;;;;;4.63;2.10;;;;;;;10.86;100.00;101612.22;5079180;28;20043;-52
2023/01/06 02:31:51;;;;;;;5.45;2.33;;;;;;;10.87;100.00;101608.41;5096702;28;20040;-48
2023/01/06 02:34:42;;;;;;;5.63;1.80;;;;;;;10.86;100.00;101599.41;5092569;28;20059;-44
2023/01/06 02:37:30;;;;;;;4.47;2.13;;;;;;;10.87;100.00;101602.94;5089668;28;20040;-46
2023/01/06 02:40:04;;;;;;;;;;;;;;;10.92;100.00;101594.84;5093636;28;20048;-46
2023/01/06 02:42:42;;;;;;;3.93;2.20;;;;;;;10.91;100.00;101593.19;5075789;28;20330;-45
2023/01/06 02:45:33;;;;;;;7.10;2.30;;;;;;;10.95;100.00;101594.34;5091706;28;20456;-45
2023/01/06 02:48:57;;;;;;;5.22;2.03;;;;;;;10.96;100.00;101574.19;5090465;28;20032;-44
2023/01/06 02:51:36;;;;;;;4.55;1.77;;;;;;;10.95;100.00;101572.53;5040792;28;20575;-47
2023/01/06 02:54:16;;;;;;;6.50;1.83;;;;;;;10.90;100.00;101569.75;5092210;28;20047;-45
2023/01/06 02:56:48;;;;;;;5.70;2.10;;;;;;;10.87;100.00;101559.31;5107954;28;20111;-47
2023/01/06 02:59:31;;;;;;;4.03;1.67;;;;;;;10.87;100.00;101559.31;5068562;28;20398;-45
2023/01/06 03:01:59;;;;;;;3.40;1.40;;;;;;;10.85;100.00;101561.50;5089054;28;20056;-46
2023/01/06 03:04:33;;;;;;;5.55;2.20;;;;;;;10.87;100.00;101559.31;5067521;28;20132;-47
2023/01/06 03:07:03;;;;;;;6.53;2.20;;;;;;;10.87;100.00;101554.72;5069734;28;20040;-46
2023/01/06 03:09:35;;;;;;;4.70;1.80;;;;;;;10.87;100.00;101553.88;5079279;28;20445;-46
2023/01/06 03:12:44;;;;;;;3.42;1.60;;;;;;;10.89;100.00;101551.72;5102613;28;20611;-44
2023/01/06 03:15:12;;;;;;;6.20;1.98;;;;;;;10.85;100.00;101551.41;5094687;28;20471;-45
2023/01/06 03:17:41;;;;;;;5.22;2.00;;;;;;;10.83;100.00;101552.75;5079001;28;20048;-47
2023/01/06 03:20:09;;;;;;;4.82;1.90;;;;;;;10.82;100.00;101551.94;5094359;28;20044;-44
2023/01/06 03:22:38;;;;;;;6.45;2.20;;;;;;;10.87;100.00;101542.97;5095800;28;20036;-46
2023/01/06 03:25:07;;;;;;;3.70;1.80;;;;;;;10.86;100.00;101546.78;5097397;28;20036;-46
2023/01/06 03:27:35;;;;;;;5.88;1.80;;;;;;;10.84;100.00;101544.28;5079149;28;20112;-46
2023/01/06 03:30:07;;;;;;;6.90;2.28;;;;;;;10.85;100.00;101536.97;5111738;28;20036;-45
2023/01/06 03:32:46;;;;;;;4.90;1.95;;;;;;;10.85;100.00;101545.97;5068446;28;20063;-46
2023/01/06 03:35:20;;;;;;;4.65;1.90;;;;;;;10.86;100.00;101544.06;5094421;28;20055;-45
2023/01/06 03:38:10;;;;;;;4.35;1.40;;;;;;;10.89;100.00;101535.34;5095700;28;20048;-47
2023/01/06 03:40:49;;;;;;;5.20;2.17;;;;;;;10.89;100.00;101535.34;5095141;28;20047;-47
2023/01/06 03:43:43;;;;;;;4.18;1.83;;;;;;;10.91;100.00;101527.75;5079006;28;20040;-46
2023/01/06 03:46:19;;;;;;;6.97;2.13;;;;;;;10.87;100.00;101513.81;5112881;28;20036;-48
2023/01/06 03:48:55;;;;;;;3.25;1.90;;;;;;;10.90;100.00;101520.66;5095293;28;20143;-48
2023/01/06 03:51:46;;;;;;;5.22;1.73;;;;;;;10.91;100.00;101521.50;5077355;28;20054;-47
2023/01/06 03:54:22;;;;;;;5.25;1.83;;;;;;;10.89;100.00;101529.91;5066384;28;20113;-45
2023/01/06 03:57:08;;;;;;;3.55;1.90;;;;;;;10.91;100.00;101532.38;5090906;28;20040;-45
2023/01/06 03:59:40;;;;;;;6.03;2.10;;;;;;;10.88;100.00;101528.28;5091586;28;20064;-47
2023/01/06 04:02:09;;;;;;;4.70;1.75;;;;;;;10.87;100.00;101532.06;5076753;28;20546;-47
2023/01/06 04:04:37;;;;;;;5.40;1.70;;;;;;;10.92;100.00;101534.88;5077201;28;20036;-45
2023/01/06 04:07:05;;;;;;;5.03;1.83;;;;;;;10.88;100.00;101533.72;5081744;28;20426;-46
2023/01/06 04:09:37;;;;;;;3.67;1.63;;;;;;;10.86;100.00;101524.97;5111701;28;20040;-47
2023/01/06 04:15:15;;;;;;;3.08;1.45;;;;;;;10.91;100.00;101505.13;5077815;28;20401;-46
2023/01/06 04:17:46;;;;;;;6.43;1.83;;;;;;;10.95;100.00;101506.28;5111338;28;20040;-45
2023/01/06 04:20:21;;;;;;;5.07;1.88;;;;;;;10.97;100.00;101495.94;5080253;28;20040;-46
2023/01/06 04:22:53;;;;;;;2.72;1.52;;;;;;;10.97;100.00;101491.31;5094358;28;20052;-46
2023/01/06 04:25:22;;;;;;;6.55;1.90;;;;;;;11.04;100.00;101483.75;5076049;28;20040;-46
2023/01/06 04:27:50;;;;;;;5.20;1.98;;;;;;;11.00;100.00;101485.34;5068278;28;20047;-45
2023/01/06 04:30:18;;;;;;;3.88;1.65;;;;;;;11.01;100.00;101467.06;5105920;28;20093;-45
2023/01/06 04:32:46;;;;;;;4.80;1.83;;;;;;;11.02;100.00;101468.75;5080646;28;20089;-46
2023/01/06 04:35:13;;;;;;;2.50;1.58;;;;;;;11.03;100.00;101465.72;5063099;28;20040;-45
2023/01/06 04:37:43;;;;;;;2.10;1.23;;;;;;;11.05;100.00;101469.03;5080598;28;20038;-45
2023/01/06 04:40:11;;;;;;;4.82;1.70;;;;;;;11.03;100.00;101454.81;5095412;28;20049;-45
2023/01/06 04:45:24;;;;;;;4.63;1.73;;;;;;;11.33;100.00;101450.78;5094537;28;20041;-46
2023/01/06 04:47:52;;;;;;;2.60;1.30;;;;;;;11.31;100.00;101442.03;5095303;28;20045;-46
2023/01/06 04:50:20;;;;;;;2.83;1.40;;;;;;;11.33;100.00;101450.78;5094345;28;20047;-46
2023/01/06 04:52:47;;;;;;;4.85;1.90;;;;;;;11.30;100.00;101445.84;5095343;28;20190;-45
2023/01/06 04:55:15;;;;;;;3.20;1.50;;;;;;;11.23;100.00;101447.94;5096884;28;20047;-44
2023/01/06 04:57:43;;;;;;;2.67;1.17;;;;;;;11.28;100.00;101437.94;5096596;28;20032;-46
2023/01/06 05:00:11;;;;;;;4.95;1.88;;;;;;;11.39;100.00;101441.56;5110623;28;20051;-46
2023/01/06 05:02:39;;;;;;;4.05;1.95;;;;;;;11.44;100.00;101441.59;5089170;28;20036;-45
2023/01/06 05:05:09;;;;;;;4.03;1.67;;;;;;;11.28;100.00;101439.81;5086241;28;20051;-45
2023/01/06 05:07:37;;;;;;;3.35;1.42;;;;;;;11.19;100.00;101438.66;5102716;28;20097;-45
2023/01/06 05:10:06;;;;;;;3.83;1.52;;;;;;;11.05;100.00;101444.50;5093413;28;20032;-46
2023/01/06 05:12:34;;;;;;;3.63;1.52;;;;;;;11.14;100.00;101430.41;5092331;28;20055;-46
2023/01/06 05:15:02;;;;;;;2.25;1.50;;;;;;;11.15;100.00;101434.78;5090930;28;20055;-46
2023/01/06 05:17:30;;;;;;;3.35;1.27;;;;;;;11.34;100.00;101421.59;5093939;28;20105;-46
2023/01/06 05:19:58;;;;;;;2.40;1.33;;;;;;;11.19;100.00;101425.00;5094774;28;20151;-47
2023/01/06 05:22:25;;;;;;;2.17;1.50;;;;;;;11.20;100.00;101427.47;5093420;28;20524;-46
2023/01/06 05:24:53;;;;;;;4.78;1.52;;;;;;;11.42;100.00;101419.22;5093312;28;20150;-46
2023/01/06 05:27:20;;;;;;;2.35;1.48;;;;;;;11.36;100.00;101409.34;5094053;28;20040;-46
2023/01/06 05:29:48;;;;;;;4.68;1.65;;;;;;;11.21;100.00;101420.13;5094613;28;20425;-44
2023/01/06 05:32:16;;;;;;;3.45;1.40;;;;;;;11.14;100.00;101412.16;5094473;28;20048;-46
2023/01/06 05:34:43;;;;;;;2.60;1.10;;;;;;;11.15;100.00;101407.50;4389893;28;10000675;-48
2023/01/06 05:37:11;;;;;;;4.35;1.80;;;;;;;11.35;100.00;101417.78;5087424;28;20040;-43
2023/01/06 05:39:38;;;;;;;5.28;1.65;;;;;;;11.55;100.00;101417.97;5091157;28;20101;-45
2023/01/06 05:42:06;;;;;;;1.92;1.05;;;;;;;11.46;100.00;101428.53;5090573;28;20067;-46
2023/01/06 05:44:33;;;;;;;5.68;1.75;;;;;;;11.26;100.00;101423.72;5089835;28;20498;-44
2023/01/06 05:47:01;;;;;;;5.50;1.80;;;;;;;11.15;100.00;101418.41;5090752;28;20067;-46
2023/01/06 05:49:29;;;;;;;3.38;1.40;;;;;;;11.12;100.00;101418.94;5090475;28;20051;-45
2023/01/06 05:51:56;;;;;;;5.45;1.40;;;;;;;11.28;100.00;101426.16;5090049;28;20048;-44
2023/01/06 05:54:24;;;;;;;5.13;1.70;;;;;;;11.23;100.00;101431.56;5089513;28;20044;-46
2023/01/06 05:56:51;;;;;;;4.97;1.50;;;;;;;11.10;100.00;101430.09;5090281;28;20482;-45
2023/01/06 05:59:19;;;;;;;3.50;1.42;;;;;;;11.14;100.00;101439.41;5088910;28;20093;-44
2023/01/06 06:01:46;;;;;;;4.75;1.63;;;;;;;11.27;100.00;101422.63;5090356;28;20047;-47
2023/01/06 06:04:14;;;;;;;5.25;1.45;;;;;;;11.16;100.00;101436.41;5089485;28;20036;-45
2023/01/06 06:06:42;;;;;;;5.78;2.00;;;;;;;11.04;100.00;101442.84;5084471;28;20086;-45
2023/01/06 06:09:10;;;;;;;4.75;1.40;;;;;;;11.09;100.00;101442.91;5089856;28;20390;-46
2023/01/06 06:11:37;;;;;;;3.55;1.50;;;;;;;11.16;100.00;101436.41;5090448;28;20065;-46
2023/01/06 06:14:09;;;;;;;2.65;1.52;;;;;;;11.30;100.00;101445.84;5088735;28;20052;-46
2023/01/06 06:16:37;;;;;;;2.58;1.38;;;;;;;11.22;100.00;101427.22;5088401;28;20100;-45
2023/01/06 06:19:04;;;;;;;2.72;1.48;;;;;;;11.16;100.00;101425.50;5090151;28;20055;-47
2023/01/06 06:21:32;;;;;;;5.75;1.48;;;;;;;11.21;100.00;101425.59;5090023;28;20529;-43
2023/01/06 06:24:00;;;;;;;3.92;1.50;;;;;;;11.21;100.00;101425.59;5089798;28;20036;-44
2023/01/06 06:26:27;;;;;;;2.75;1.40;;;;;;;11.22;100.00;101414.41;5089150;28;20051;-44
2023/01/06 06:28:55;;;;;;;3.05;1.77;;;;;;;11.09;100.00;101423.81;5090641;28;20486;-47
2023/01/06 06:31:25;;;;;;;3.28;1.50;;;;;;;11.12;100.00;101418.94;5092472;28;20048;-44
2023/01/06 06:33:55;;;;;;;5.45;2.10;;;;;;;11.02;100.00;101414.19;5090232;28;20071;-44
2023/01/06 06:36:23;;;;;;;7.43;2.40;;;;;;;10.97;100.00;101412.25;5088047;28;20109;-43
2023/01/06 06:38:52;;;;;;;3.38;1.55;;;;;;;10.87;100.00;101417.56;5089648;28;20059;-43
2023/01/06 06:41:20;;;;;;;3.33;1.17;;;;;;;10.81;100.00;101418.59;5089842;28;20052;-44
2023/01/06 06:43:48;;;;;;;4.30;1.90;;;;;;;10.77;100.00;101421.00;5089547;28;20039;-44
2023/01/06 06:46:17;;;;;;;3.40;1.40;;;;;;;10.73;100.00;101419.06;5089356;28;20131;-45
2023/01/06 06:48:45;;;;;;;3.28;1.55;;;;;;;10.72;100.00;101415.47;5085600;28;20028;-46
2023/01/06 06:51:15;;;;;;;3.63;1.50;;;;;;;10.75;100.00;101423.16;5089569;28;20058;-45
2023/01/06 06:53:44;;;;;;;4.68;1.88;;;;;;;10.75;100.00;101419.59;5089671;28;20040;-44
2023/01/06 06:56:12;;;;;;;7.47;2.70;;;;;;;10.78;100.00;101424.56;5086787;28;20559;-44
2023/01/06 06:58:40;;;;;;;5.97;2.00;;;;;;;10.96;100.00;101429.66;5085639;28;20074;-43
2023/01/06 07:01:13;;;;;;;2.25;1.52;;;;;;;10.84;100.00;101437.16;5087856;28;20490;-45
2023/01/06 07:03:41;;;;;;;5.47;1.90;;;;;;;10.76;100.00;101432.97;5088499;28;20036;-49
2023/01/06 07:06:15;;;;;;;4.85;1.73;;;;;;;10.75;100.00;101430.50;5091337;28;20044;-44
2023/01/06 07:08:44;;;;;;;14.27;4.00;;;;;;;10.79;100.00;101437.09;5085272;28;20552;-45
2023/01/06 07:11:12;;;;;;;5.25;1.98;;;;;;;10.75;100.00;101446.84;5069194;28;20060;-45
2023/01/06 07:13:39;;;;;;;3.58;1.65;;;;;;;10.68;100.00;101438.91;5085927;28;20036;-44
2023/01/06 07:16:07;;;;;;;9.85;3.08;;;;;;;10.74;100.00;101439.78;5091438;28;20407;-45
2023/01/06 07:18:35;;;;;;;8.63;3.03;;;;;;;10.83;100.00;101443.69;5091571;28;20402;-45
2023/01/06 07:21:03;;;;;;;24.15;6.20;;;;;;;10.91;100.00;101445.16;5079051;28;20040;-45
2023/01/06 07:23:31;;;;;;;6.88;2.40;;;;;;;10.85;100.00;101458.72;5091310;28;20040;-45
2023/01/06 07:26:01;;;;;;;11.25;3.80;;;;;;;10.87;100.00;101450.28;5091547;28;20040;-45
2023/01/06 07:28:30;;;;;;;28.63;8.15;;;;;;;10.91;100.00;101447.88;5092374;28;20457;-45
2023/01/06 07:30:58;;;;;;;14.70;4.57;;;;;;;10.91;100.00;101451.41;5092314;28;20047;-44
2023/01/06 07:33:25;;;;;;;13.05;3.88;;;;;;;10.91;100.00;101456.06;5091772;28;20073;-46
2023/01/06 07:35:54;;;;;;;7.47;2.42;;;;;;;10.85;100.00;101456.00;5092665;28;20047;-46
2023/01/06 07:38:22;;;;;;;14.80;4.45;;;;;;;10.95;100.00;101457.19;5091513;28;20093;-45
2023/01/06 07:40:50;;;;;;;9.45;3.20;;;;;;;10.97;100.00;101455.88;5092114;28;20085;-45
2023/01/06 07:43:18;;;;;;;11.20;3.67;;;;;;;10.96;100.00;101458.84;5091183;28;20044;-45
2023/01/06 07:45:47;;;;;;;11.35;3.58;;;;;;;10.88;100.00;101457.38;5091109;28;20044;-45
2023/01/06 07:48:15;;;;;;;11.85;3.80;;;;;;;10.91;100.00;101451.41;5092416;28;20067;-45
2023/01/06 07:50:43;;;;;;;5.63;2.67;;;;;;;10.90;100.00;101455.25;5090752;28;20059;-45
2023/01/06 07:53:11;;;;;;;11.90;4.13;;;;;;;10.87;100.00;101455.72;5092204;28;20070;-45
2023/01/06 07:55:39;;;;;;;9.90;3.78;;;;;;;10.92;100.00;101464.00;5090922;28;20052;-45
2023/01/06 07:58:07;;;;;;;15.68;5.45;;;;;;;10.89;100.00;101469.94;5091727;28;20501;-45
2023/01/06 08:00:36;;;;;;;9.63;3.70;;;;;;;10.91;100.00;101478.69;5093988;28;20067;-45
2023/01/06 08:03:05;;;;;;;3.17;1.80;;;;;;;10.83;100.00;101484.59;5075805;28;20041;-44
2023/01/06 08:05:35;;;;;;;6.40;2.42;;;;;;;10.80;100.00;101490.53;5086785;28;20037;-45
2023/01/06 08:08:03;;;;;;;3.90;2.17;;;;;;;10.78;100.00;101479.91;5094305;28;20059;-45
2023/01/06 08:10:31;;;;;;;9.52;3.22;;;;;;;10.79;100.00;101491.63;5094476;28;20119;-45
2023/01/06 08:12:58;;;;;;;6.43;2.72;;;;;;;10.77;100.00;101496.50;5095521;28;20044;-45
2023/01/06 08:15:26;;;;;;;10.65;3.47;;;;;;;10.76;100.00;101498.41;5096042;28;20437;-44
2023/01/06 08:17:54;;;;;;;5.45;2.92;;;;;;;10.76;100.00;101498.41;5094440;28;20036;-47
2023/01/06 08:20:22;;;;;;;6.78;3.05;;;;;;;10.71;100.00;101505.69;5095964;28;20055;-45
2023/01/06 08:22:50;;;;;;;9.43;3.22;;;;;;;10.72;100.00;101516.31;5094523;28;20550;-46
2023/01/06 08:25:17;;;;;;;4.78;2.20;;;;;;;10.68;100.00;101527.97;5094551;28;20044;-46
2023/01/06 08:27:45;;;;;;;7.18;2.90;;;;;;;10.68;100.00;101536.16;5094933;28;20036;-47
2023/01/06 08:30:13;;;;;;;4.47;2.50;;;;;;;10.67;100.00;101532.63;5094753;28;20040;-46
2023/01/06 08:32:40;;;;;;;4.53;2.20;;;;;;;10.66;100.00;101537.25;5095366;28;20036;-45
2023/01/06 08:35:08;;;;;;;6.45;2.45;;;;;;;10.66;100.00;101531.78;5096056;28;20076;-46
2023/01/06 08:37:36;;;;;;;9.05;2.85;;;;;;;10.76;100.00;101533.84;5095595;28;20052;-45
2023/01/06 08:40:04;;;;;;;6.72;2.90;;;;;;;10.80;100.00;101542.31;5095508;28;20065;-45
2023/01/06 08:42:32;;;;;;;4.45;2.30;;;;;;;10.79;100.00;101544.22;5094200;28;20036;-46
2023/01/06 08:44:59;;;;;;;4.40;2.08;;;;;;;10.79;100.00;101554.31;5095356;28;20036;-45
2023/01/06 08:47:27;;;;;;;4.15;2.13;;;;;;;10.77;100.00;101553.72;5095149;28;20513;-46
2023/01/06 08:49:54;;;;;;;3.60;2.55;;;;;;;10.73;100.00;101556.16;5094542;28;20064;-45
2023/01/06 08:52:22;;;;;;;5.22;3.00;;;;;;;10.71;100.00;101560.22;5093662;28;20055;-45
2023/01/06 08:54:50;;;;;;;3.08;2.05;;;;;;;10.73;100.00;101563.50;5095069;28;20043;-44
2023/01/06 08:57:17;;;;;;;6.10;2.33;;;;;;;10.76;100.00;101563.00;5094889;28;20043;-45
2023/01/06 08:59:45;;;;;;;3.35;1.90;;;;;;;10.73;100.00;101564.31;5095582;28;20425;-47
2023/01/06 09:02:13;;;;;;;4.18;2.03;;;;;;;10.75;100.00;101555.88;5094764;28;20044;-45
2023/01/06 09:04:40;;;;;;;6.43;3.38;;;;;;;10.77;100.00;101551.00;5093417;28;20060;-45
2023/01/06 09:07:08;;;;;;;4.45;2.35;;;;;;;10.83;100.00;101558.19;5084583;28;20112;-45
2023/01/06 09:09:36;;;;;;;3.97;2.28;;;;;;;10.82;100.00;101561.97;5089404;28;20051;-45
2023/01/06 09:12:03;;;;;;;4.13;2.30;;;;;;;10.82;100.00;101571.00;5093042;28;20043;-45
2023/01/06 09:14:33;;;;;;;2.72;2.40;;;;;;;10.86;100.00;101574.03;5094869;28;20051;-45
2023/01/06 09:17:01;;;;;;;5.53;2.42;;;;;;;10.86;100.00;101577.59;5094269;28;20498;-45
2023/01/06 09:19:29;;;;;;;3.17;2.65;;;;;;;10.88;100.00;101588.25;5094608;28;20097;-45
2023/01/06 09:21:56;;;;;;;6.07;3.08;;;;;;;10.86;100.00;101588.50;5094518;28;20069;-46
2023/01/06 09:24:26;;;;;;;4.38;2.65;;;;;;;10.87;100.00;101597.50;5095172;28;20048;-47
2023/01/06 09:26:54;;;;;;;5.20;2.60;;;;;;;10.88;100.00;101604.59;5094452;28;20044;-45
2023/01/06 09:29:22;;;;;;;5.40;2.58;;;;;;;10.89;100.00;101606.25;5093871;28;20048;-48
2023/01/06 09:31:49;;;;;;;4.15;2.38;;;;;;;10.88;100.00;101612.78;5094357;28;20402;-45
2023/01/06 09:34:17;;;;;;;8.50;2.90;;;;;;;10.88;100.00;101615.50;5094531;28;20097;-45
2023/01/06 09:36:45;;;;;;;4.70;3.00;;;;;;;10.91;100.00;101625.91;5095418;28;20053;-46
2023/01/06 09:39:12;;;;;;;6.22;3.10;;;;;;;10.93;100.00;101629.22;5095859;28;20043;-45
2023/01/06 09:42:37;;;;;;;5.88;2.70;;;;;;;10.93;100.00;101625.66;5094448;28;20395;-46
2023/01/06 09:45:11;;;;;;;4.45;2.40;;;;;;;10.95;100.00;101631.69;5032033;28;20571;-43
2023/01/06 09:47:45;;;;;;;6.90;3.20;;;;;;;10.99;100.00;101630.09;5035839;28;20503;-46
2023/01/06 09:50:37;;;;;;;6.97;3.30;;;;;;;10.98;100.00;101634.75;5081473;28;20109;-44
2023/01/06 09:53:12;;;;;;;4.22;2.70;;;;;;;11.02;100.00;101637.81;5082085;28;20506;-46
2023/01/06 09:55:46;;;;;;;5.05;2.85;;;;;;;11.08;100.00;101640.34;5094129;28;20036;-47
2023/01/06 09:58:22;;;;;;;5.43;2.80;;;;;;;11.08;100.00;101637.59;5094168;28;20059;-45
2023/01/06 10:00:51;;;;;;;5.23;2.67;;;;;;;11.09;100.00;101644.72;5092791;28;20052;-44
2023/01/06 10:03:21;;;;;;;3.88;2.35;;;;;;;11.09;100.00;101643.91;5075770;28;20286;-44
2023/01/06 10:06:26;;;;;;;7.10;2.97;;;;;;;11.09;100.00;101644.72;5098568;28;20040;-44
2023/01/06 10:09:05;;;;;;;6.05;2.70;;;;;;;11.09;100.00;101644.72;5098895;28;20475;-44
2023/01/06 10:11:57;;;;;;;4.82;2.90;;;;;;;11.06;100.00;101647.97;5093624;28;20044;-45
2023/01/06 10:14:38;;;;;;;5.75;3.05;;;;;;;11.04;100.00;101646.53;5093152;28;20048;-45
2023/01/06 10:17:46;;;;;;;6.65;2.50;;;;;;;11.02;100.00;101646.81;5096372;28;20049;-45
2023/01/06 10:20:38;;;;;;;6.75;2.63;;;;;;;11.00;100.00;101651.69;5093400;28;20468;-45
2023/01/06 10:23:14;;;;;;;6.00;2.63;;;;;;;11.00;100.00;101654.41;5091999;28;20151;-45
2023/01/06 10:25:50;;;;;;;6.32;2.88;;;;;;;11.00;100.00;101650.84;5093265;28;20130;-45
2023/01/06 10:28:34;;;;;;;9.50;3.13;;;;;;;10.99;100.00;101650.03;5092104;28;20036;-45
2023/01/06 10:31:10;;;;;;;7.13;3.00;;;;;;;10.98;100.00;101648.38;5092285;28;20047;-45
2023/01/06 10:33:54;;;;;;;8.05;3.72;;;;;;;11.00;100.00;101648.13;5091894;28;20044;-45
2023/01/06 10:36:45;;;;;;;8.13;3.30;;;;;;;11.00;100.00;101651.69;5092344;28;20053;-45
2023/01/06 10:39:15;;;;;;;4.40;2.03;;;;;;;10.98;100.00;101653.00;5085952;28;20056;-45
2023/01/06 10:41:55;;;;;;;6.55;2.28;;;;;;;10.98;100.00;101647.56;5092973;28;20105;-45
2023/01/06 10:44:23;;;;;;;7.20;2.58;;;;;;;10.93;100.00;101651.03;5082954;28;20517;-45
2023/01/06 10:46:50;;;;;;;6.40;2.25;;;;;;;10.93;100.00;101642.84;5096241;28;20153;-47
2023/01/06 10:49:19;;;;;;;4.05;2.05;;;;;;;10.92;100.00;101649.41;5094385;28;20036;-45
2023/01/06 10:51:53;;;;;;;8.07;1.98;;;;;;;10.91;100.00;101646.91;5091889;28;20506;-45
2023/01/06 10:54:24;;;;;;;8.35;2.85;;;;;;;10.90;100.00;101657.00;5091936;28;20040;-46
2023/01/06 10:57:03;;;;;;;9.02;2.60;;;;;;;10.91;100.00;101649.63;5092134;28;20072;-46
2023/01/06 10:59:30;;;;;;;8.70;3.40;;;;;;;10.91;100.00;101647.72;5093519;28;20032;-46
2023/01/06 11:01:58;;;;;;;9.85;3.97;;;;;;;10.93;100.00;101645.56;5092246;28;20051;-47
2023/01/06 11:04:27;;;;;;;10.40;4.32;;;;;;;10.95;100.00;101648.88;5092636;28;20044;-46
2023/01/06 11:06:57;;;;;;;9.65;4.40;;;;;;;11.00;100.00;101651.69;5092230;28;20058;-45
2023/01/06 11:09:43;;;;;;;13.60;4.40;;;;;;;11.05;100.00;101649.03;5093350;28;20555;-45
2023/01/06 11:12:16;;;;;;;10.48;3.80;;;;;;;11.09;100.00;101649.38;5093625;28;20119;-45
2023/01/06 11:14:55;;;;;;;8.13;3.20;;;;;;;11.14;100.00;101645.88;5092334;28;20050;-45
2023/01/06 11:17:23;;;;;;;8.15;2.83;;;;;;;11.16;100.00;101647.28;5091322;28;20040;-44
2023/01/06 11:20:06;;;;;;;8.93;2.80;;;;;;;11.20;100.00;101647.59;5077876;28;20057;-45
2023/01/06 11:22:39;;;;;;;7.97;2.70;;;;;;;11.23;100.00;101653.38;5092914;28;20044;-45
2023/01/06 11:25:29;;;;;;;11.05;3.42;;;;;;;11.30;100.00;101650.44;5093034;28;20032;-47
2023/01/06 11:28:14;;;;;;;15.07;3.38;;;;;;;11.26;100.00;101652.06;5092224;28;20040;-45
2023/01/06 11:30:51;;;;;;;9.68;2.90;;;;;;;11.26;100.00;101649.31;5079845;28;20043;-45
2023/01/06 11:33:23;;;;;;;10.25;3.03;;;;;;;11.26;100.00;101643.88;5091574;28;20443;-45
2023/01/06 11:35:52;;;;;;;8.95;2.95;;;;;;;11.27;100.00;101649.06;5096742;28;20035;-43
2023/01/06 11:38:20;;;;;;;8.00;2.70;;;;;;;11.27;100.00;101650.97;5095735;28;20044;-45
2023/01/06 11:40:50;;;;;;;8.75;2.72;;;;;;;11.28;100.00;101647.13;5095491;28;20036;-45
2023/01/06 11:43:30;;;;;;;8.55;2.90;;;;;;;11.28;100.00;101642.53;5095475;28;20047;-45
2023/01/06 11:46:01;;;;;;;8.35;2.80;;;;;;;11.27;100.00;101640.88;5065931;28;20118;-45
2023/01/06 11:48:34;;;;;;;10.82;2.75;;;;;;;11.26;100.00;101641.13;5095577;28;20052;-47